createdAt,value
2018-03-14T00:01:11.704Z,5.90
2018-03-14T00:03:40.038Z,5.90
2018-03-14T00:06:07.871Z,6.03
2018-03-14T00:08:35.637Z,6.70
2018-03-14T00:11:03.164Z,6.00
2018-03-14T00:13:31.679Z,6.43
2018-03-14T00:15:59.501Z,6.13
2018-03-14T00:18:27.171Z,7.67
2018-03-14T00:20:55.664Z,6.00
2018-03-14T00:23:25.099Z,6.53
2018-03-14T00:25:53.675Z,6.23
2018-03-14T00:28:21.344Z,5.80
2018-03-14T00:30:48.851Z,6.30
2018-03-14T00:33:16.397Z,6.17
2018-03-14T00:35:43.867Z,5.67
2018-03-14T00:38:11.364Z,6.67
2018-03-14T00:40:38.806Z,6.53
2018-03-14T00:43:07.051Z,6.63
2018-03-14T00:45:34.508Z,5.40
2018-03-14T00:48:02.298Z,5.90
2018-03-14T00:50:30.165Z,5.50
2018-03-14T00:52:58.747Z,5.63
2018-03-14T00:55:26.459Z,4.80
2018-03-14T00:57:54.431Z,5.30
2018-03-14T01:00:22.660Z,4.87
2018-03-14T01:02:50.617Z,5.37
2018-03-14T01:05:18.544Z,5.07
2018-03-14T01:07:46.403Z,4.97
2018-03-14T01:10:14.314Z,5.10
2018-03-14T01:12:42.885Z,5.47
2018-03-14T01:15:10.937Z,4.40
2018-03-14T01:17:39.330Z,4.70
2018-03-14T01:20:07.206Z,4.30
2018-03-14T01:22:35.197Z,4.87
2018-03-14T01:25:03.126Z,5.13
2018-03-14T01:27:30.903Z,4.85
2018-03-14T01:29:58.759Z,5.00
2018-03-14T01:32:26.427Z,4.90
2018-03-14T01:34:54.802Z,5.20
2018-03-14T01:37:23.079Z,5.30
2018-03-14T01:39:51.047Z,7.20
2018-03-14T01:42:18.875Z,4.73
2018-03-14T01:44:46.981Z,5.03
2018-03-14T01:47:15.268Z,4.80
2018-03-14T01:49:43.136Z,5.72
2018-03-14T01:52:10.767Z,5.20
2018-03-14T01:54:38.993Z,4.83
2018-03-14T01:57:06.585Z,5.07
2018-03-14T01:59:34.096Z,5.33
2018-03-14T02:02:02.057Z,5.30
2018-03-14T02:04:29.630Z,5.40
2018-03-14T02:06:57.420Z,5.00
2018-03-14T02:09:25.297Z,5.07
2018-03-14T02:11:56.098Z,5.50
2018-03-14T02:14:24.330Z,4.67
2018-03-14T02:16:53.037Z,4.43
2018-03-14T02:19:26.817Z,4.60
2018-03-14T02:21:55.967Z,5.27
2018-03-14T02:24:24.506Z,4.80
2018-03-14T02:26:52.887Z,5.70
2018-03-14T02:29:21.517Z,5.17
2018-03-14T02:31:49.589Z,5.40
2018-03-14T02:34:18.788Z,4.80
2018-03-14T02:37:04.764Z,5.43
2018-03-14T02:39:32.546Z,5.73
2018-03-14T02:42:00.147Z,4.80
2018-03-14T02:44:28.127Z,5.03
2018-03-14T02:46:55.705Z,5.17
2018-03-14T02:49:23.915Z,5.20
2018-03-14T02:51:51.812Z,5.45
2018-03-14T02:54:19.288Z,4.90
2018-03-14T02:56:46.954Z,5.53
2018-03-14T02:59:14.740Z,5.90
2018-03-14T03:01:43.249Z,5.27
2018-03-14T03:04:11.323Z,5.10
2018-03-14T03:06:38.993Z,4.90
2018-03-14T03:09:06.645Z,5.50
2018-03-14T03:11:35.017Z,5.90
2018-03-14T03:14:03.311Z,4.77
2018-03-14T03:16:31.215Z,5.63
2018-03-14T03:18:58.922Z,5.37
2018-03-14T03:21:28.046Z,4.87
2018-03-14T03:23:57.548Z,4.70
2018-03-14T03:26:27.340Z,4.13
2018-03-14T03:28:55.671Z,5.03
2018-03-14T03:31:23.160Z,4.23
2018-03-14T03:33:50.742Z,4.00
2018-03-14T03:36:18.423Z,4.40
2018-03-14T03:38:45.889Z,4.32
2018-03-14T03:41:13.546Z,4.55
2018-03-14T03:43:43.567Z,4.57
2018-03-14T03:46:11.124Z,4.23
2018-03-14T03:48:38.685Z,4.17
2018-03-14T03:51:07.946Z,4.10
2018-03-14T03:53:36.419Z,4.43
2018-03-14T03:56:04.332Z,3.97
2018-03-14T03:58:32.426Z,5.20
2018-03-14T04:01:00.304Z,4.60
2018-03-14T04:03:28.145Z,4.97
2018-03-14T04:05:55.645Z,4.60
2018-03-14T04:08:24.393Z,4.30
2018-03-14T04:10:52.333Z,5.10
2018-03-14T04:13:21.930Z,4.90
2018-03-14T04:15:49.804Z,5.68
2018-03-14T04:18:18.020Z,5.07
2018-03-14T04:20:46.191Z,4.82
2018-03-14T04:23:14.161Z,6.10
2018-03-14T04:25:41.934Z,4.97
2018-03-14T04:28:09.992Z,5.40
2018-03-14T04:30:41.739Z,5.65
2018-03-14T04:33:10.311Z,6.20
2018-03-14T04:35:37.793Z,5.97
2018-03-14T04:38:06.133Z,6.33
2018-03-14T04:40:33.656Z,5.43
2018-03-14T04:43:01.135Z,6.37
2018-03-14T04:45:28.937Z,6.13
2018-03-14T04:47:57.790Z,5.75
2018-03-14T04:50:25.339Z,6.77
2018-03-14T04:52:53.388Z,5.85
2018-03-14T04:55:21.233Z,6.03
2018-03-14T04:57:50.870Z,6.10
2018-03-14T05:00:19.115Z,5.87
2018-03-14T05:02:47.932Z,5.90
2018-03-14T05:05:15.808Z,6.53
2018-03-14T05:07:43.585Z,5.63
2018-03-14T05:10:11.146Z,6.00
2018-03-14T05:12:39.302Z,6.03
2018-03-14T05:15:07.341Z,5.60
2018-03-14T05:17:35.378Z,6.13
2018-03-14T05:20:03.828Z,6.10
2018-03-14T05:22:32.804Z,6.00
2018-03-14T05:25:01.501Z,5.70
2018-03-14T05:27:29.481Z,5.60
2018-03-14T05:29:57.875Z,5.37
2018-03-14T05:32:25.670Z,5.43
2018-03-14T05:34:53.902Z,5.97
2018-03-14T05:37:21.667Z,6.00
2018-03-14T05:39:50.358Z,5.60
2018-03-14T05:42:18.454Z,6.00
2018-03-14T05:44:46.704Z,6.47
2018-03-14T05:47:14.768Z,5.37
2018-03-14T05:49:43.522Z,5.33
2018-03-14T05:52:11.481Z,5.35
2018-03-14T05:54:39.632Z,5.70
2018-03-14T05:57:08.094Z,6.00
2018-03-14T05:59:37.190Z,6.20
2018-03-14T06:02:05.753Z,5.47
2018-03-14T06:04:34.563Z,6.68
2018-03-14T06:07:02.508Z,7.75
2018-03-14T06:09:31.294Z,6.53
2018-03-14T06:12:01.035Z,6.72
2018-03-14T06:14:29.480Z,6.12
2018-03-14T06:16:59.536Z,6.37
2018-03-14T06:19:27.320Z,6.97
2018-03-14T06:21:54.769Z,6.47
2018-03-14T06:24:22.327Z,6.10
2018-03-14T06:26:49.797Z,7.10
2018-03-14T06:29:17.410Z,7.03
2018-03-14T06:31:44.873Z,5.10
2018-03-14T06:34:13.102Z,5.93
2018-03-14T06:36:40.583Z,6.40
2018-03-14T06:39:08.142Z,5.90
2018-03-14T06:41:35.703Z,6.50
2018-03-14T06:44:03.226Z,6.13
2018-03-14T06:46:30.678Z,6.47
2018-03-14T06:48:58.192Z,7.00
2018-03-14T06:51:25.734Z,6.87
2018-03-14T06:53:53.217Z,5.77
2018-03-14T06:56:21.454Z,6.15
2018-03-14T06:59:00.916Z,5.27
2018-03-14T07:01:40.266Z,6.13
2018-03-14T07:04:19.939Z,5.80
2018-03-14T07:06:47.465Z,6.30
2018-03-14T07:09:15.427Z,6.40
2018-03-14T07:11:42.890Z,7.00
2018-03-14T07:14:10.352Z,7.43
2018-03-14T07:16:37.821Z,7.80
2018-03-14T07:19:05.269Z,6.30
2018-03-14T07:21:32.729Z,5.60
2018-03-14T07:24:00.199Z,5.33
2018-03-14T07:26:28.459Z,5.63
2018-03-14T07:28:57.427Z,5.80
2018-03-14T07:31:24.886Z,6.47
2018-03-14T07:33:52.358Z,5.57
2018-03-14T07:36:19.892Z,5.63
2018-03-14T07:38:48.084Z,6.37
2018-03-14T07:41:15.536Z,5.93
2018-03-14T07:43:43.045Z,5.33
2018-03-14T07:46:11.277Z,5.60
2018-03-14T07:48:38.741Z,5.43
2018-03-14T07:51:06.210Z,5.70
2018-03-14T07:53:33.765Z,5.10
2018-03-14T07:56:01.236Z,5.30
2018-03-14T07:58:28.686Z,4.97
2018-03-14T08:00:56.242Z,5.90
2018-03-14T08:03:23.703Z,7.00
2018-03-14T08:05:51.160Z,5.50
2018-03-14T08:08:18.718Z,5.70
2018-03-14T08:10:46.177Z,5.03
2018-03-14T08:13:13.635Z,5.27
2018-03-14T08:15:41.205Z,4.87
2018-03-14T08:18:08.655Z,4.77
2018-03-14T08:20:36.215Z,4.90
2018-03-14T08:23:03.670Z,5.00
2018-03-14T08:25:31.134Z,4.63
2018-03-14T08:27:58.586Z,5.20
2018-03-14T08:30:26.053Z,4.53
2018-03-14T08:32:53.509Z,4.60
2018-03-14T08:35:20.982Z,4.10
2018-03-14T08:37:48.534Z,4.70
2018-03-14T08:40:15.986Z,4.70
2018-03-14T08:42:43.437Z,5.50
2018-03-14T08:45:10.909Z,4.20
2018-03-14T08:47:38.385Z,4.30
2018-03-14T08:50:05.845Z,4.13
2018-03-14T08:52:33.300Z,4.10
2018-03-14T08:55:00.746Z,4.13
2018-03-14T08:57:29.905Z,4.10
2018-03-14T08:59:57.369Z,4.17
2018-03-14T09:02:24.815Z,4.00
2018-03-14T09:04:52.313Z,4.00
2018-03-14T09:07:20.020Z,4.07
2018-03-14T09:09:48.278Z,3.47
2018-03-14T09:12:18.023Z,4.50
2018-03-14T09:14:46.404Z,3.90
2018-03-14T09:17:15.506Z,3.83
2018-03-14T09:19:43.981Z,3.87
2018-03-14T09:22:12.466Z,3.27
2018-03-14T09:24:39.913Z,3.70
2018-03-14T09:27:07.437Z,3.03
2018-03-14T09:29:35.010Z,2.87
2018-03-14T09:32:02.606Z,3.37
2018-03-14T09:34:30.130Z,4.03
2018-03-14T09:36:58.365Z,2.90
2018-03-14T09:39:25.891Z,2.83
2018-03-14T09:41:54.456Z,2.17
2018-03-14T09:44:22.985Z,2.40
2018-03-14T09:46:50.938Z,2.90
2018-03-14T09:49:18.610Z,2.73
2018-03-14T09:51:46.280Z,3.10
2018-03-14T09:54:14.445Z,4.30
2018-03-14T09:56:45.045Z,2.60
2018-03-14T09:59:16.323Z,2.80
2018-03-14T10:01:45.228Z,3.17
2018-03-14T10:04:12.728Z,3.80
2018-03-14T10:06:40.194Z,2.93
2018-03-14T10:09:09.233Z,3.37
2018-03-14T10:11:38.222Z,3.27
2018-03-14T10:14:06.332Z,2.70
2018-03-14T10:16:34.627Z,3.30
2018-03-14T10:19:03.245Z,2.90
2018-03-14T10:21:31.534Z,3.30
2018-03-14T10:24:06.367Z,2.80
2018-03-14T10:26:37.161Z,3.17
2018-03-14T10:29:05.199Z,3.20
2018-03-14T10:31:32.837Z,2.70
2018-03-14T10:34:01.063Z,2.40
2018-03-14T10:36:30.217Z,2.13
2018-03-14T10:38:58.029Z,2.70
2018-03-14T10:41:25.663Z,2.50
2018-03-14T10:43:53.158Z,3.20
2018-03-14T10:46:20.864Z,2.80
2018-03-14T10:48:48.556Z,2.60
2018-03-14T10:51:16.908Z,2.47
2018-03-14T10:53:45.418Z,2.93
2018-03-14T10:56:13.565Z,3.03
2018-03-14T10:58:43.590Z,2.77
2018-03-14T11:01:11.818Z,3.10
2018-03-14T11:03:45.477Z,3.17
2018-03-14T11:06:13.266Z,3.70
2018-03-14T11:08:41.590Z,3.40
2018-03-14T11:11:10.697Z,3.00
2018-03-14T11:13:39.393Z,3.00
2018-03-14T11:16:08.695Z,2.90
2018-03-14T11:18:37.381Z,3.20
2018-03-14T11:21:05.549Z,2.47
2018-03-14T11:23:34.496Z,2.77
2018-03-14T11:26:02.298Z,2.93
2018-03-14T11:28:32.295Z,2.50
2018-03-14T11:30:59.947Z,2.60
2018-03-14T11:33:28.057Z,2.97
2018-03-14T11:39:14.099Z,2.50
2018-03-14T11:41:44.338Z,2.53
2018-03-14T11:44:14.495Z,2.73
2018-03-14T11:46:43.833Z,3.47
2018-03-14T11:49:13.066Z,3.20
2018-03-14T11:51:45.769Z,3.10
2018-03-14T11:54:18.653Z,2.57
2018-03-14T11:56:47.586Z,2.50
2018-03-14T11:59:18.697Z,2.70
2018-03-14T12:01:46.811Z,3.07
2018-03-14T12:04:14.905Z,2.57
2018-03-14T12:06:42.964Z,3.73
2018-03-14T12:09:11.542Z,2.70
2018-03-14T12:11:40.672Z,2.70
2018-03-14T12:16:42.421Z,3.13
2018-03-14T12:19:10.253Z,2.90
2018-03-14T12:21:40.302Z,3.40
2018-03-14T12:24:08.580Z,3.47
2018-03-14T12:26:37.267Z,3.40
2018-03-14T12:29:05.203Z,3.20
2018-03-14T12:31:32.979Z,3.20
2018-03-14T12:34:01.911Z,3.10
2018-03-14T12:36:29.661Z,3.23
2018-03-14T12:38:57.219Z,2.97
2018-03-14T12:41:24.749Z,3.60
2018-03-14T12:43:53.359Z,3.00
2018-03-14T12:46:23.594Z,3.00
2018-03-14T12:48:51.873Z,3.10
2018-03-14T12:51:19.864Z,3.37
2018-03-14T12:53:47.603Z,3.33
2018-03-14T12:56:15.994Z,3.27
2018-03-14T12:58:45.388Z,3.33
2018-03-14T13:01:13.051Z,3.50
2018-03-14T13:03:43.970Z,3.27
2018-03-14T13:06:11.653Z,2.73
2018-03-14T13:08:40.123Z,3.37
2018-03-14T13:11:08.440Z,2.87
2018-03-14T13:13:36.192Z,3.83
2018-03-14T13:16:03.875Z,3.23
2018-03-14T13:18:31.348Z,3.80
2018-03-14T13:20:58.823Z,3.20
2018-03-14T13:23:26.571Z,3.50
2018-03-14T13:25:54.042Z,3.80
2018-03-14T13:28:21.617Z,3.50
2018-03-14T13:30:49.616Z,3.70
2018-03-14T13:33:17.589Z,3.10
2018-03-14T13:35:45.216Z,3.00
2018-03-14T13:38:12.834Z,2.60
2018-03-14T13:40:40.336Z,3.23
2018-03-14T13:43:07.790Z,3.40
2018-03-14T13:45:35.300Z,3.33
2018-03-14T13:48:02.771Z,3.57
2018-03-14T13:50:30.225Z,2.97
2018-03-14T13:52:57.878Z,3.40
2018-03-14T13:55:25.633Z,3.40
2018-03-14T13:57:53.809Z,3.00
2018-03-14T14:00:21.422Z,3.07
2018-03-14T14:02:49.540Z,3.97
2018-03-14T14:05:18.531Z,3.17
2018-03-14T14:07:48.549Z,3.80
2018-03-14T14:10:16.837Z,4.00
2018-03-14T14:12:44.338Z,3.70
2018-03-14T14:15:11.807Z,3.80
2018-03-14T14:17:39.293Z,3.47
2018-03-14T14:20:07.438Z,4.17
2018-03-14T14:22:35.309Z,4.30
2018-03-14T14:25:03.073Z,3.63
2018-03-14T14:27:30.626Z,3.80
2018-03-14T14:29:59.317Z,4.20
2018-03-14T14:32:26.776Z,3.83
2018-03-14T14:34:55.031Z,3.90
2018-03-14T14:37:23.068Z,3.17
2018-03-14T14:39:51.914Z,4.07
2018-03-14T14:42:20.144Z,3.97
2018-03-14T14:44:49.048Z,3.97
2018-03-14T14:47:18.464Z,4.20
2018-03-14T14:49:50.029Z,3.93
2018-03-14T14:52:19.137Z,4.20
2018-03-14T14:54:47.194Z,4.20
2018-03-14T14:57:16.425Z,4.10
2018-03-14T14:59:44.332Z,4.43
2018-03-14T15:04:47.482Z,4.50
2018-03-14T15:07:15.513Z,4.80
2018-03-14T15:09:43.278Z,4.30
2018-03-14T15:12:12.205Z,4.20
2018-03-14T15:14:40.039Z,4.37
2018-03-14T15:17:08.090Z,5.10
2018-03-14T15:19:36.387Z,4.10
2018-03-14T15:22:04.255Z,4.60
2018-03-14T15:24:32.928Z,4.60
2018-03-14T15:27:01.315Z,4.43
2018-03-14T15:29:29.289Z,5.00
2018-03-14T15:31:58.496Z,5.10
2018-03-14T15:34:26.303Z,5.00
2018-03-14T15:36:53.800Z,5.50
2018-03-14T15:39:23.070Z,5.57
2018-03-14T15:41:50.915Z,4.93
2018-03-14T15:44:18.930Z,5.03
2018-03-14T15:46:47.426Z,5.23
2018-03-14T15:49:15.180Z,5.50
2018-03-14T15:51:42.739Z,5.63
2018-03-14T15:54:10.983Z,5.50
2018-03-14T15:56:38.428Z,4.83
2018-03-14T15:59:05.988Z,4.37
2018-03-14T16:01:33.445Z,4.90
2018-03-14T16:04:01.198Z,5.17
2018-03-14T16:06:28.689Z,5.50
2018-03-14T16:08:56.160Z,5.47
2018-03-14T16:11:23.732Z,4.40
2018-03-14T16:13:51.223Z,4.73
2018-03-14T16:16:18.729Z,4.67
2018-03-14T16:18:47.006Z,4.40
2018-03-14T16:21:14.454Z,4.20
2018-03-14T16:23:41.918Z,6.33
2018-03-14T16:26:09.531Z,4.40
2018-03-14T16:28:37.733Z,4.80
2018-03-14T16:31:05.198Z,4.23
2018-03-14T16:33:32.644Z,4.87
2018-03-14T16:36:00.144Z,5.13
2018-03-14T16:38:27.964Z,4.40
2018-03-14T16:40:55.422Z,4.90
2018-03-14T16:43:22.920Z,4.57
2018-03-14T16:45:50.431Z,5.20
2018-03-14T16:48:17.884Z,4.80
2018-03-14T16:50:45.564Z,5.10
2018-03-14T16:53:13.059Z,5.10
2018-03-14T16:55:40.685Z,4.90
2018-03-14T16:58:08.145Z,4.80
2018-03-14T17:00:35.657Z,4.80
2018-03-14T17:03:03.223Z,5.60
2018-03-14T17:05:31.446Z,5.20
2018-03-14T17:07:58.905Z,5.57
2018-03-14T17:10:26.505Z,5.23
2018-03-14T17:12:54.192Z,5.80
2018-03-14T17:15:22.405Z,5.73
2018-03-14T17:17:49.865Z,6.00
2018-03-14T17:20:17.354Z,6.13
2018-03-14T17:22:45.025Z,5.40
2018-03-14T17:25:12.523Z,5.50
2018-03-14T17:27:40.066Z,6.17
2018-03-14T17:30:07.602Z,8.97
2018-03-14T17:32:35.057Z,9.30
2018-03-14T17:35:03.313Z,9.30
2018-03-14T17:37:30.824Z,9.10
2018-03-14T17:39:59.080Z,6.13
2018-03-14T17:42:26.573Z,5.40
2018-03-14T17:44:54.041Z,6.10
2018-03-14T17:47:21.493Z,6.23
2018-03-14T17:49:49.012Z,8.13
2018-03-14T17:52:16.522Z,7.90
2018-03-14T17:54:44.293Z,7.60
2018-03-14T17:57:11.826Z,6.87
2018-03-14T17:59:40.046Z,7.70
2018-03-14T18:02:07.534Z,8.60
2018-03-14T18:04:35.879Z,10.87
2018-03-14T18:07:03.535Z,12.80
2018-03-14T18:09:31.008Z,11.30
2018-03-14T18:11:58.498Z,10.20
2018-03-14T18:14:26.237Z,10.07
2018-03-14T18:17:12.786Z,13.20
2018-03-14T18:19:40.342Z,11.00
2018-03-14T18:22:08.601Z,8.97
2018-03-14T18:24:36.134Z,8.53
2018-03-14T18:27:03.773Z,8.20
2018-03-14T18:29:31.319Z,9.77
2018-03-14T18:31:59.640Z,8.20
2018-03-14T18:34:27.096Z,7.83
2018-03-14T18:36:54.603Z,6.63
2018-03-14T18:39:23.041Z,7.27
2018-03-14T18:41:50.694Z,7.00
2018-03-14T18:44:18.274Z,6.43
2018-03-14T18:46:45.730Z,7.13
2018-03-14T18:49:13.304Z,7.20
2018-03-14T18:51:40.859Z,7.63
2018-03-14T18:54:08.376Z,7.53
2018-03-14T18:56:36.632Z,7.80
2018-03-14T18:59:05.136Z,7.73
2018-03-14T19:01:32.900Z,8.27
2018-03-14T19:04:00.461Z,9.03
2018-03-14T19:06:27.963Z,8.03
2018-03-14T19:08:55.457Z,7.10
2018-03-14T19:11:22.931Z,7.40
2018-03-14T19:13:50.465Z,7.93
2018-03-14T19:16:18.767Z,9.00
2018-03-14T19:18:46.215Z,7.20
2018-03-14T19:21:14.659Z,6.90
2018-03-14T19:23:42.416Z,7.73
2018-03-14T19:26:09.943Z,6.70
2018-03-14T19:28:38.319Z,7.73
2018-03-14T19:31:05.785Z,7.13
2018-03-14T19:33:33.328Z,7.70
2018-03-14T19:36:01.290Z,7.90
2018-03-14T19:38:29.881Z,7.90
2018-03-14T19:40:57.457Z,7.37
2018-03-14T19:43:25.284Z,6.77
2018-03-14T19:45:52.807Z,7.53
2018-03-14T19:48:20.343Z,6.93
2018-03-14T19:50:47.873Z,8.03
2018-03-14T19:53:16.248Z,7.60
2018-03-14T19:55:43.746Z,7.73
2018-03-14T19:58:11.410Z,8.03
2018-03-14T20:00:38.879Z,8.60
2018-03-14T20:03:06.402Z,8.60
2018-03-14T20:05:35.049Z,7.90
2018-03-14T20:08:02.933Z,7.93
2018-03-14T20:10:30.691Z,7.33
2018-03-14T20:15:37.326Z,9.50
2018-03-14T20:18:04.861Z,9.10
2018-03-14T20:20:32.522Z,10.90
2018-03-14T20:23:00.019Z,9.20
2018-03-14T20:25:27.811Z,9.73
2018-03-14T20:27:55.307Z,9.50
2018-03-14T20:30:23.837Z,10.43
2018-03-14T20:32:51.693Z,9.90
2018-03-14T20:35:19.417Z,10.17
2018-03-14T20:37:47.019Z,8.60
2018-03-14T20:40:14.605Z,9.80
2018-03-14T20:42:42.584Z,9.83
2018-03-14T20:45:10.425Z,10.30
2018-03-14T20:47:38.350Z,9.80
2018-03-14T20:50:06.670Z,8.60
2018-03-14T20:52:34.909Z,9.20
2018-03-14T20:55:03.203Z,9.30
2018-03-14T20:57:30.822Z,8.38
2018-03-14T20:59:58.527Z,9.20
2018-03-14T21:02:26.830Z,8.97
2018-03-14T21:04:54.426Z,9.05
2018-03-14T21:07:22.009Z,8.80
2018-03-14T21:09:50.539Z,9.00
2018-03-14T21:12:18.066Z,8.80
2018-03-14T21:14:46.335Z,8.63
2018-03-14T21:17:14.571Z,9.23
2018-03-14T21:19:42.138Z,8.88
2018-03-14T21:22:09.591Z,8.80
2018-03-14T21:24:37.091Z,9.27
2018-03-14T21:27:05.629Z,8.63
2018-03-14T21:29:33.197Z,8.10
2018-03-14T21:32:00.797Z,8.65
2018-03-14T21:34:29.091Z,9.35
2018-03-14T21:36:56.657Z,8.85
2018-03-14T21:39:24.224Z,9.55
2018-03-14T21:41:51.719Z,9.40
2018-03-14T21:44:19.283Z,9.25
2018-03-14T21:46:47.647Z,8.48
2018-03-14T21:49:15.934Z,7.77
2018-03-14T21:51:43.528Z,10.07
2018-03-14T21:54:12.622Z,9.73
2018-03-14T21:56:40.097Z,10.05
2018-03-14T21:59:08.346Z,9.85
2018-03-14T22:01:35.935Z,11.10
2018-03-14T22:04:04.159Z,10.90
2018-03-14T22:06:31.729Z,11.73
2018-03-14T22:08:59.203Z,11.20
2018-03-14T22:11:26.912Z,12.20
2018-03-14T22:13:55.225Z,11.80
2018-03-14T22:16:22.852Z,12.88
2018-03-14T22:18:50.358Z,11.45
2018-03-14T22:21:17.844Z,11.52
2018-03-14T22:23:46.124Z,12.35
2018-03-14T22:26:14.531Z,13.02
2018-03-14T22:28:42.054Z,13.68
2018-03-14T22:31:09.542Z,12.40
2018-03-14T22:33:37.035Z,13.25
2018-03-14T22:36:04.524Z,11.20
2018-03-14T22:38:32.086Z,11.00
2018-03-14T22:40:59.585Z,10.93
2018-03-14T22:43:27.082Z,11.35
2018-03-14T22:45:54.621Z,11.50
2018-03-14T22:48:22.083Z,11.15
2018-03-14T22:50:49.561Z,10.57
2018-03-14T22:53:17.148Z,11.55
2018-03-14T22:55:44.630Z,10.65
2018-03-14T22:58:12.105Z,10.52
2018-03-14T23:00:39.585Z,11.20
2018-03-14T23:03:07.057Z,9.93
2018-03-14T23:05:34.537Z,11.73
2018-03-14T23:08:02.028Z,11.12
2018-03-14T23:10:30.414Z,11.40
2018-03-14T23:12:57.943Z,10.60
2018-03-14T23:15:26.187Z,11.07
2018-03-14T23:17:53.678Z,11.68
2018-03-14T23:20:21.233Z,10.55
2018-03-14T23:22:48.782Z,11.75
2018-03-14T23:25:16.347Z,10.73
2018-03-14T23:27:43.879Z,10.55
2018-03-14T23:30:12.060Z,13.32
2018-03-14T23:32:39.545Z,11.30
2018-03-14T23:35:07.011Z,11.82
2018-03-14T23:37:34.574Z,11.70
2018-03-14T23:40:02.069Z,11.60
2018-03-14T23:42:29.542Z,12.20
2018-03-14T23:44:57.000Z,13.77
2018-03-14T23:47:24.485Z,12.95
2018-03-14T23:49:51.959Z,11.43
2018-03-14T23:52:19.438Z,12.77
2018-03-14T23:54:47.691Z,11.48
2018-03-14T23:57:15.929Z,12.40
2018-03-14T23:59:43.403Z,13.65
